Time;durP1;ratioP1;P1;durP2;ratioP2;P2;SDS_P1;SDS_P2;PMS_P1;PMS_P2;Temp;Humidity;BMP_temperature;BMP_pressure;BME280_temperature;BME280_humidity;BME280_pressure;Samples;Min_cycle;Max_cycle;Signal;HPM_P1;HPM_P2
2023/12/08 00:02:06;;;;;;;12.52;6.50;;;9.80;99.90;;;;;;5009923;28;20079;-80
2023/12/08 00:04:31;;;;;;;22.35;9.25;;;9.50;99.90;;;;;;5028988;28;20102;-79
2023/12/08 00:06:57;;;;;;;13.55;7.47;;;10.10;99.90;;;;;;5015725;28;20393;-80
2023/12/08 00:09:23;;;;;;;11.80;7.60;;;10.10;99.90;;;;;;5026984;28;20033;-80
2023/12/08 00:11:48;;;;;;;10.73;6.53;;;10.00;99.90;;;;;;5028903;28;20438;-80
2023/12/08 00:14:14;;;;;;;35.63;5.70;;;10.10;99.90;;;;;;5029452;28;20074;-80
2023/12/08 00:16:41;;;;;;;8.27;5.65;;;10.10;99.90;;;;;;5012253;28;20107;-80
2023/12/08 00:19:07;;;;;;;9.23;5.32;;;10.10;99.90;;;;;;5032634;28;20638;-84
2023/12/08 00:21:33;;;;;;;10.95;5.88;;;9.90;99.90;;;;;;5032999;28;20037;-80
2023/12/08 00:23:59;;;;;;;83.32;8.68;;;9.70;99.90;;;;;;5032427;28;20505;-80
2023/12/08 00:26:24;;;;;;;34.58;7.90;;;10.10;99.90;;;;;;5032926;28;20068;-80
2023/12/08 00:28:50;;;;;;;67.93;6.45;;;9.90;99.90;;;;;;5047766;28;20061;-80
2023/12/08 00:31:15;;;;;;;8.40;5.45;;;10.20;99.90;;;;;;5041173;28;20037;-80
2023/12/08 00:33:41;;;;;;;18.85;5.30;;;10.20;99.90;;;;;;5037725;28;20400;-80
2023/12/08 00:36:17;;;;;;;8.18;5.07;;;8.10;99.90;;;;;;5031091;28;20306;-80
2023/12/08 00:38:44;;;;;;;6.05;4.70;;;10.10;99.90;;;;;;5033595;28;20021;-80
2023/12/08 00:41:10;;;;;;;5.78;4.25;;;10.20;99.90;;;;;;5031411;28;20068;-80
2023/12/08 00:43:36;;;;;;;10.80;7.00;;;10.30;99.90;;;;;;5032373;28;20049;-80
2023/12/08 00:46:01;;;;;;;11.45;5.68;;;9.30;99.90;;;;;;5032349;28;20072;-80
2023/12/08 00:48:27;;;;;;;12.02;6.55;;;10.30;99.90;;;;;;5032153;28;20482;-79
2023/12/08 00:50:52;;;;;;;8.48;5.13;;;10.80;99.90;;;;;;5032217;28;20025;-80
2023/12/08 00:53:18;;;;;;;6.95;4.40;;;10.10;99.90;;;;;;5033185;28;20029;-80
2023/12/08 00:55:44;;;;;;;9.40;4.40;;;10.10;99.90;;;;;;5032417;28;20033;-80
2023/12/08 00:58:11;;;;;;;6.18;4.10;;;10.10;99.90;;;;;;5032258;28;20025;-80
2023/12/08 01:00:37;;;;;;;7.82;4.78;;;10.00;99.90;;;;;;5032241;28;20022;-80
2023/12/08 01:03:02;;;;;;;10.32;6.20;;;10.10;99.90;;;;;;5031959;28;20033;-80
2023/12/08 01:05:28;;;;;;;10.73;6.68;;;10.00;99.90;;;;;;5031621;28;20525;-80
2023/12/08 01:07:54;;;;;;;9.52;5.03;;;10.00;99.90;;;;;;5032077;28;20021;-80
2023/12/08 01:10:20;;;;;;;8.02;4.70;;;9.60;99.90;;;;;;5021362;28;20045;-80
2023/12/08 01:12:46;;;;;;;8.80;4.47;;;10.20;99.90;;;;;;5012924;28;20486;-80
2023/12/08 01:15:12;;;;;;;10.32;4.60;;;9.60;99.90;;;;;;5012292;28;20083;-80
2023/12/08 01:17:37;;;;;;;10.52;5.75;;;9.90;99.90;;;;;;5030018;28;20030;-80
2023/12/08 01:20:05;;;;;;;14.05;6.10;;;10.30;99.90;;;;;;5031912;28;20478;-80
2023/12/08 01:22:30;;;;;;;14.32;6.53;;;9.90;99.90;;;;;;5031657;28;20030;-79
2023/12/08 01:24:56;;;;;;;9.27;5.63;;;9.60;99.90;;;;;;5011959;28;20034;-79
2023/12/08 01:27:22;;;;;;;10.48;4.60;;;9.40;99.90;;;;;;5015328;28;20037;-80
2023/12/08 01:29:48;;;;;;;7.75;4.55;;;9.90;99.90;;;;;;5031760;28;20104;-79
2023/12/08 01:32:13;;;;;;;131.20;6.68;;;9.90;99.90;;;;;;5031287;28;20104;-79
2023/12/08 01:34:39;;;;;;;11.40;5.03;;;10.00;99.90;;;;;;5013253;28;20025;-80
2023/12/08 01:37:04;;;;;;;16.67;6.93;;;10.00;99.90;;;;;;5031539;28;20481;-80
2023/12/08 01:39:30;;;;;;;14.45;5.53;;;10.20;99.90;;;;;;5013861;28;20493;-80
2023/12/08 01:41:56;;;;;;;34.83;6.13;;;10.00;99.90;;;;;;5031587;28;20037;-80
2023/12/08 01:44:21;;;;;;;18.73;4.22;;;10.30;99.90;;;;;;5031225;28;20029;-80
2023/12/08 01:46:47;;;;;;;21.17;4.95;;;10.20;99.90;;;;;;5016385;28;20101;-80
2023/12/08 01:49:14;;;;;;;18.05;5.00;;;10.10;99.90;;;;;;5013007;28;20108;-80
2023/12/08 01:51:41;;;;;;;22.40;7.38;;;10.00;99.90;;;;;;5031268;28;20029;-80
2023/12/08 01:54:07;;;;;;;19.90;5.90;;;9.90;99.90;;;;;;5030957;28;20509;-80
2023/12/08 01:56:32;;;;;;;18.75;6.50;;;10.70;99.90;;;;;;5031181;28;20059;-80
2023/12/08 01:58:58;;;;;;;15.82;5.95;;;10.80;99.90;;;;;;5028929;28;20052;-80
2023/12/08 02:01:25;;;;;;;19.73;4.45;;;10.60;99.90;;;;;;5011210;28;20461;-80
2023/12/08 02:03:51;;;;;;;14.05;4.35;;;9.90;99.90;;;;;;5012227;28;20500;-80
2023/12/08 02:06:17;;;;;;;18.95;4.90;;;10.00;99.90;;;;;;5011896;28;20037;-80
2023/12/08 02:08:46;;;;;;;14.48;4.22;;;10.20;99.90;;;;;;5031017;28;20120;-80
2023/12/08 02:11:13;;;;;;;19.10;5.32;;;10.80;99.90;;;;;;5030925;28;20052;-80
2023/12/08 02:13:39;;;;;;;16.40;5.80;;;10.10;99.90;;;;;;5012900;28;20075;-80
2023/12/08 02:16:15;;;;;;;16.13;5.05;;;10.10;99.90;;;;;;5012815;28;20062;-80
2023/12/08 02:18:41;;;;;;;13.95;5.10;;;10.10;99.90;;;;;;5011134;28;20021;-81
2023/12/08 02:21:08;;;;;;;11.65;4.35;;;10.20;99.90;;;;;;5025932;28;20099;-80
2023/12/08 02:23:37;;;;;;;11.35;4.88;;;10.10;99.90;;;;;;5028674;28;20501;-80
2023/12/08 02:26:04;;;;;;;12.98;5.10;;;10.00;99.90;;;;;;5028939;28;20029;-79
2023/12/08 02:28:30;;;;;;;8.30;4.03;;;10.00;99.90;;;;;;5030346;28;20025;-80
2023/12/08 02:30:57;;;;;;;7.45;3.63;;;9.90;99.90;;;;;;5034200;28;20025;-80
2023/12/08 02:33:33;;;;;;;9.00;3.85;;;9.80;99.90;;;;;;5013212;28;20038;-79
2023/12/08 02:36:00;;;;;;;8.23;3.83;;;9.40;99.90;;;;;;5030321;28;20132;-81
2023/12/08 02:38:27;;;;;;;4.85;3.15;;;9.90;99.90;;;;;;5028806;28;20045;-80
2023/12/08 02:40:55;;;;;;;5.70;2.60;;;9.80;99.90;;;;;;5030688;28;20066;-80
2023/12/08 02:43:20;;;;;;;4.33;2.50;;;10.10;99.90;;;;;;5031126;28;20563;-79
2023/12/08 02:45:46;;;;;;;9.75;2.75;;;9.70;99.90;;;;;;5048275;28;20068;-79
2023/12/08 02:48:12;;;;;;;6.43;4.15;;;9.70;99.90;;;;;;5037726;28;20505;-80
2023/12/08 02:50:37;;;;;;;6.22;3.60;;;9.70;99.90;;;;;;5029795;28;20048;-84
2023/12/08 02:53:03;;;;;;;6.43;3.28;;;9.00;99.90;;;;;;5029734;28;20108;-84
2023/12/08 02:55:28;;;;;;;4.72;3.05;;;10.70;99.90;;;;;;5029868;28;20060;-81
2023/12/08 02:57:54;;;;;;;4.57;2.85;;;9.80;99.90;;;;;;5030713;28;20030;-83
2023/12/08 03:00:19;;;;;;;6.47;2.65;;;9.80;99.90;;;;;;5029792;28;20029;-84
2023/12/08 03:02:45;;;;;;;4.20;2.58;;;9.80;99.90;;;;;;5029852;28;20610;-81
2023/12/08 03:05:11;;;;;;;9.40;4.95;;;10.00;99.90;;;;;;5028784;28;20099;-82
2023/12/08 03:07:36;;;;;;;8.82;3.85;;;9.80;99.90;;;;;;5029348;28;20030;-83
2023/12/08 03:10:02;;;;;;;11.57;5.53;;;9.90;99.90;;;;;;5028801;28;20026;-81
2023/12/08 03:12:27;;;;;;;7.32;3.33;;;9.90;99.90;;;;;;5029803;28;20501;-81
2023/12/08 03:14:53;;;;;;;5.68;3.30;;;9.50;99.90;;;;;;5030428;28;20543;-83
2023/12/08 03:17:18;;;;;;;4.85;2.80;;;10.10;99.90;;;;;;5027181;28;20021;-84
2023/12/08 03:19:44;;;;;;;8.40;4.95;;;10.00;99.90;;;;;;5024596;28;20021;-81
2023/12/08 03:22:10;;;;;;;24.48;4.47;;;10.00;99.90;;;;;;5034288;28;20033;-81
2023/12/08 03:24:35;;;;;;;5.30;3.47;;;10.00;99.90;;;;;;5028821;28;20041;-81
2023/12/08 03:27:01;;;;;;;6.68;3.67;;;10.00;99.90;;;;;;5007091;28;20030;-82
2023/12/08 03:29:26;;;;;;;6.55;2.78;;;10.10;99.90;;;;;;5010559;28;20022;-85
2023/12/08 03:31:52;;;;;;;4.93;3.10;;;10.10;99.90;;;;;;5008808;28;20124;-83
2023/12/08 03:34:18;;;;;;;7.28;2.97;;;10.10;99.90;;;;;;5009895;28;20026;-81
2023/12/08 03:36:43;;;;;;;8.18;4.90;;;10.50;99.90;;;;;;5009707;28;20451;-81
2023/12/08 03:39:09;;;;;;;7.35;3.63;;;10.00;99.90;;;;;;5020887;28;20096;-81
2023/12/08 03:41:34;;;;;;;8.35;4.97;;;10.30;99.90;;;;;;5024223;28;20025;-80
2023/12/08 03:44:00;;;;;;;4.07;2.78;;;10.20;99.90;;;;;;5028733;28;20030;-81
2023/12/08 03:46:25;;;;;;;2.72;2.40;;;10.20;99.90;;;;;;5025937;28;20498;-83
2023/12/08 03:48:51;;;;;;;2.70;2.40;;;10.20;99.90;;;;;;5028179;28;20052;-81
2023/12/08 03:51:16;;;;;;;6.15;4.15;;;10.10;99.90;;;;;;5010567;28;20061;-84
2023/12/08 03:53:42;;;;;;;7.40;3.67;;;10.10;99.90;;;;;;5028039;28;20036;-80
2023/12/08 03:56:08;;;;;;;11.20;3.78;;;10.10;99.90;;;;;;5027695;28;20018;-81
2023/12/08 03:58:34;;;;;;;4.10;2.97;;;10.20;99.90;;;;;;5028566;28;20037;-84
2023/12/08 04:00:59;;;;;;;2.25;2.05;;;10.20;99.90;;;;;;5029166;28;20023;-81
2023/12/08 04:03:25;;;;;;;3.35;2.40;;;10.80;99.90;;;;;;5028881;28;20033;-86
2023/12/08 04:05:51;;;;;;;10.93;2.50;;;10.20;99.90;;;;;;5028076;28;20056;-84
2023/12/08 04:08:17;;;;;;;6.80;4.45;;;9.80;99.90;;;;;;5028704;28;20110;-84
2023/12/08 04:10:42;;;;;;;7.10;3.90;;;10.20;99.90;;;;;;5028953;28;20021;-85
2023/12/08 04:13:08;;;;;;;7.82;4.07;;;10.20;99.90;;;;;;5026867;28;20627;-84
2023/12/08 04:15:34;;;;;;;4.78;3.17;;;11.00;99.90;;;;;;5028726;28;20067;-84
2023/12/08 04:17:59;;;;;;;2.60;2.00;;;10.10;99.90;;;;;;5011392;28;20040;-81
2023/12/08 04:20:25;;;;;;;9.70;2.33;;;10.20;99.90;;;;;;5031997;28;20040;-84
2023/12/08 04:22:51;;;;;;;2.85;2.08;;;10.20;99.90;;;;;;5048551;28;20024;-82
2023/12/08 04:25:16;;;;;;;9.98;3.25;;;10.10;99.90;;;;;;5048599;28;20037;-84
2023/12/08 04:27:42;;;;;;;6.10;3.35;;;10.20;99.90;;;;;;5042251;28;20052;-80
2023/12/08 04:30:08;;;;;;;4.85;3.47;;;10.20;99.90;;;;;;5028314;28;20124;-84
2023/12/08 04:32:34;;;;;;;20.85;2.85;;;10.20;99.90;;;;;;5027867;28;20033;-81
2023/12/08 04:35:00;;;;;;;2.33;1.90;;;9.80;99.90;;;;;;5028693;28;20025;-84
2023/12/08 04:37:25;;;;;;;2.55;1.95;;;10.40;99.90;;;;;;5027675;28;20536;-84
2023/12/08 04:39:51;;;;;;;3.10;2.38;;;10.20;99.90;;;;;;5028413;28;20030;-81
2023/12/08 04:42:16;;;;;;;5.47;4.05;;;10.30;99.90;;;;;;5028057;28;20042;-82
2023/12/08 04:44:42;;;;;;;6.30;3.38;;;10.50;99.90;;;;;;5028543;28;20401;-83
2023/12/08 04:47:09;;;;;;;5.55;3.47;;;10.20;99.90;;;;;;5028097;28;20034;-81
2023/12/08 04:49:35;;;;;;;2.80;2.22;;;10.50;99.90;;;;;;5028673;28;20022;-83
2023/12/08 04:52:01;;;;;;;2.15;1.90;;;10.50;99.90;;;;;;5008289;28;20456;-81
2023/12/08 04:54:26;;;;;;;3.13;2.10;;;10.20;99.90;;;;;;5029316;28;20017;-80
2023/12/08 04:56:52;;;;;;;2.58;2.00;;;10.10;99.90;;;;;;5030037;28;20033;-80
2023/12/08 04:59:18;;;;;;;4.30;2.85;;;9.90;99.90;;;;;;5036347;28;20028;-83
2023/12/08 05:01:43;;;;;;;4.82;3.30;;;10.60;99.90;;;;;;5027909;28;20049;-88
2023/12/08 05:04:09;;;;;;;6.88;2.67;;;10.00;99.90;;;;;;5029628;28;20075;-87
2023/12/08 05:06:34;;;;;;;4.18;2.55;;;10.30;99.90;;;;;;5019691;28;20038;-89
2023/12/08 05:09:00;;;;;;;12.07;2.35;;;10.30;99.90;;;;;;5022414;28;20394;-83
2023/12/08 05:11:25;;;;;;;3.70;2.38;;;10.90;99.90;;;;;;5027879;28;20046;-82
2023/12/08 05:13:51;;;;;;;3.25;2.42;;;11.10;99.90;;;;;;5021398;28;20029;-82
2023/12/08 05:16:16;;;;;;;6.40;3.30;;;10.30;99.90;;;;;;5012605;28;20022;-87
2023/12/08 05:18:42;;;;;;;15.50;3.30;;;9.70;99.90;;;;;;5013228;28;20504;-84
2023/12/08 05:21:09;;;;;;;4.90;3.05;;;10.20;99.90;;;;;;5031385;28;20040;-86
2023/12/08 05:23:34;;;;;;;2.85;2.08;;;10.60;99.90;;;;;;5013380;28;20034;-86
2023/12/08 05:26:00;;;;;;;2.38;1.95;;;10.60;99.90;;;;;;5032614;28;20083;-83
2023/12/08 05:28:25;;;;;;;34.25;2.35;;;9.40;99.90;;;;;;5029757;28;20095;-85
2023/12/08 05:30:54;;;;;;;9.52;3.75;;;10.40;99.90;;;;;;5030408;28;20025;-83
2023/12/08 05:33:20;;;;;;;6.88;3.83;;;10.60;99.90;;;;;;5031992;28;20116;-88
2023/12/08 05:35:45;;;;;;;8.88;4.15;;;10.40;99.90;;;;;;5021004;28;20421;-83
2023/12/08 05:38:11;;;;;;;17.65;4.38;;;11.10;99.90;;;;;;5031583;28;20033;-83
2023/12/08 05:40:37;;;;;;;8.80;3.40;;;10.80;99.90;;;;;;5031359;28;20069;-83
2023/12/08 05:43:03;;;;;;;9.57;2.95;;;10.90;99.90;;;;;;5014613;28;20057;-83
2023/12/08 05:45:28;;;;;;;6.40;2.90;;;10.40;99.90;;;;;;5031400;28;20505;-83
2023/12/08 05:47:54;;;;;;;8.13;3.42;;;11.00;99.90;;;;;;5030171;28;20025;-83
2023/12/08 05:50:20;;;;;;;9.65;4.50;;;10.50;99.90;;;;;;5031101;28;20446;-84
2023/12/08 05:52:45;;;;;;;11.90;5.45;;;10.50;99.90;;;;;;5031390;28;20044;-84
2023/12/08 05:55:11;;;;;;;11.63;5.00;;;10.50;99.90;;;;;;5030858;28;20017;-84
2023/12/08 05:57:36;;;;;;;9.70;3.28;;;11.20;99.90;;;;;;5031284;28;20394;-88
2023/12/08 06:00:06;;;;;;;11.23;3.58;;;10.50;99.90;;;;;;5014349;28;20112;-84
2023/12/08 06:02:31;;;;;;;6.95;3.67;;;10.50;99.90;;;;;;5031673;28;20021;-83
2023/12/08 06:04:57;;;;;;;10.60;3.20;;;10.50;99.90;;;;;;5017798;28;20018;-83
2023/12/08 06:07:23;;;;;;;15.43;5.38;;;10.80;99.90;;;;;;5027461;28;20112;-83
2023/12/08 06:09:48;;;;;;;11.73;5.05;;;9.70;99.90;;;;;;5034252;28;20025;-83
2023/12/08 06:12:14;;;;;;;12.32;5.47;;;10.90;99.90;;;;;;5041154;28;20485;-83
2023/12/08 06:14:40;;;;;;;14.75;5.38;;;10.80;99.90;;;;;;5040458;28;20503;-83
2023/12/08 06:17:05;;;;;;;15.63;4.35;;;10.90;99.90;;;;;;5030615;28;20036;-82
2023/12/08 06:19:31;;;;;;;8.82;3.47;;;11.00;99.90;;;;;;5031458;28;20100;-82
2023/12/08 06:21:56;;;;;;;10.38;3.63;;;10.60;99.90;;;;;;5030692;28;20033;-82
2023/12/08 06:24:22;;;;;;;10.32;4.38;;;10.80;99.90;;;;;;5030356;28;20112;-84
2023/12/08 06:26:48;;;;;;;11.13;4.55;;;10.70;99.90;;;;;;5030692;28;20044;-83
2023/12/08 06:29:13;;;;;;;13.00;5.75;;;10.40;99.90;;;;;;5030564;28;20029;-83
2023/12/08 06:31:39;;;;;;;10.13;4.28;;;10.40;99.90;;;;;;5012786;28;20034;-83
2023/12/08 06:34:05;;;;;;;8.57;3.70;;;10.60;99.90;;;;;;5031395;28;20028;-83
2023/12/08 06:36:30;;;;;;;9.05;3.25;;;10.30;99.90;;;;;;5030498;28;20029;-83
2023/12/08 06:38:56;;;;;;;7.57;2.80;;;10.60;99.90;;;;;;5030433;28;20087;-83
2023/12/08 06:41:21;;;;;;;10.95;4.03;;;11.00;99.90;;;;;;5030613;28;20109;-83
2023/12/08 06:43:48;;;;;;;14.50;4.38;;;10.20;99.90;;;;;;5030426;28;20505;-82
2023/12/08 06:46:13;;;;;;;11.52;5.00;;;10.60;99.90;;;;;;5012635;28;20033;-82
2023/12/08 06:48:39;;;;;;;8.73;3.33;;;11.30;99.90;;;;;;5030233;28;20036;-82
2023/12/08 06:51:05;;;;;;;9.10;3.00;;;10.90;99.90;;;;;;5031207;28;20537;-82
2023/12/08 06:53:30;;;;;;;6.18;2.72;;;10.50;99.90;;;;;;5030068;28;20095;-82
2023/12/08 06:55:56;;;;;;;14.48;4.30;;;10.40;99.90;;;;;;5030002;28;20057;-84
2023/12/08 06:58:21;;;;;;;13.23;4.60;;;11.00;99.90;;;;;;5012548;28;20394;-84
2023/12/08 07:00:48;;;;;;;12.02;4.38;;;11.00;99.90;;;;;;5030075;28;20030;-82
2023/12/08 07:03:14;;;;;;;14.82;4.38;;;10.50;99.90;;;;;;5029919;28;20033;-82
2023/12/08 07:05:39;;;;;;;6.78;2.67;;;10.10;99.90;;;;;;5030167;28;20026;-82
2023/12/08 07:08:05;;;;;;;8.63;2.65;;;10.70;99.90;;;;;;5030780;28;20027;-85
2023/12/08 07:10:30;;;;;;;10.45;2.75;;;10.80;99.90;;;;;;5029872;28;20025;-85
2023/12/08 07:12:56;;;;;;;12.00;4.38;;;10.20;99.90;;;;;;5029763;28;20042;-82
2023/12/08 07:15:22;;;;;;;10.07;4.38;;;10.10;99.90;;;;;;5029770;28;20389;-81
2023/12/08 07:17:48;;;;;;;10.35;5.03;;;;;;;;;;5029717;28;20021;-81
2023/12/08 07:20:13;;;;;;;9.52;3.72;;;10.30;99.90;;;;;;5029649;28;20075;-81
2023/12/08 07:22:40;;;;;;;4.90;2.45;;;10.30;99.90;;;;;;5012013;28;20487;-82
2023/12/08 07:25:07;;;;;;;6.00;2.67;;;10.00;99.90;;;;;;5030048;28;20037;-82
2023/12/08 07:27:33;;;;;;;6.37;2.70;;;10.30;99.90;;;;;;5029583;28;20556;-84
2023/12/08 07:29:58;;;;;;;5.50;2.58;;;10.30;99.90;;;;;;5029530;28;20629;-82
2023/12/08 07:32:24;;;;;;;8.98;3.88;;;10.00;99.90;;;;;;5029408;28;20469;-82
2023/12/08 07:34:50;;;;;;;9.25;4.18;;;10.10;99.90;;;;;;5029601;28;20022;-85
2023/12/08 07:37:16;;;;;;;12.30;5.15;;;10.90;99.90;;;;;;5029441;28;20032;-81
2023/12/08 07:39:41;;;;;;;7.47;3.92;;;9.50;99.90;;;;;;5029378;28;20021;-81
2023/12/08 07:42:07;;;;;;;6.40;3.90;;;9.90;99.90;;;;;;5030246;28;20025;-81
2023/12/08 07:44:34;;;;;;;13.18;5.57;;;9.60;99.90;;;;;;5029280;28;20123;-82
2023/12/08 07:47:00;;;;;;;9.52;4.20;;;9.90;99.90;;;;;;5029257;28;20033;-82
2023/12/08 07:49:26;;;;;;;15.55;6.63;;;9.90;99.90;;;;;;5029296;28;20036;-81
2023/12/08 07:51:51;;;;;;;11.77;6.13;;;9.70;99.90;;;;;;5029239;28;20029;-82
2023/12/08 07:54:17;;;;;;;15.35;7.15;;;9.90;99.90;;;;;;5029187;28;20033;-81
2023/12/08 07:56:42;;;;;;;6.90;4.10;;;9.90;99.90;;;;;;5029231;28;20029;-81
2023/12/08 07:59:08;;;;;;;6.82;3.85;;;9.60;99.90;;;;;;5029963;28;20386;-81
2023/12/08 08:01:35;;;;;;;4.43;3.28;;;9.60;99.90;;;;;;5029101;28;20096;-81
2023/12/08 08:04:01;;;;;;;5.45;3.90;;;9.50;99.90;;;;;;5029138;28;20246;-81
2023/12/08 08:06:26;;;;;;;7.35;4.65;;;9.50;99.90;;;;;;5029040;28;20025;-81
2023/12/08 08:08:52;;;;;;;7.93;5.40;;;9.00;99.90;;;;;;5011255;28;20022;-81
2023/12/08 08:11:17;;;;;;;8.32;5.85;;;9.40;99.90;;;;;;5028899;28;20021;-82
2023/12/08 08:13:43;;;;;;;6.78;3.75;;;9.30;99.90;;;;;;5011270;28;20036;-81
2023/12/08 08:16:09;;;;;;;8.68;4.72;;;9.40;99.90;;;;;;5012170;28;20505;-85
2023/12/08 08:18:34;;;;;;;6.97;5.07;;;9.20;99.90;;;;;;5028906;28;20116;-81
2023/12/08 08:21:00;;;;;;;14.23;8.00;;;9.10;99.90;;;;;;5028857;28;20038;-81
2023/12/08 08:23:25;;;;;;;18.38;9.05;;;9.20;99.90;;;;;;5028745;28;20033;-81
2023/12/08 08:25:51;;;;;;;26.85;12.73;;;8.60;99.90;;;;;;5028915;28;20025;-86
2023/12/08 08:28:18;;;;;;;32.85;15.10;;;9.70;99.90;;;;;;5028835;28;20100;-81
2023/12/08 08:30:44;;;;;;;24.33;13.93;;;9.00;99.90;;;;;;5028832;28;20026;-81
2023/12/08 08:33:10;;;;;;;18.42;11.90;;;8.40;99.90;;;;;;5029530;28;20037;-81
2023/12/08 08:35:36;;;;;;;15.38;9.82;;;9.00;99.90;;;;;;5028825;28;20017;-81
2023/12/08 08:38:02;;;;;;;10.10;5.25;;;8.10;99.90;;;;;;5031159;28;20310;-81
2023/12/08 08:40:28;;;;;;;16.75;8.60;;;8.70;99.90;;;;;;5032667;28;20374;-82
2023/12/08 08:42:53;;;;;;;13.70;7.18;;;9.00;99.90;;;;;;5032638;28;20056;-81
2023/12/08 08:45:19;;;;;;;19.20;10.02;;;9.00;99.90;;;;;;5032684;28;20439;-81
2023/12/08 08:47:45;;;;;;;13.65;5.20;;;9.20;99.90;;;;;;5032463;28;20030;-81
2023/12/08 08:50:11;;;;;;;8.40;4.15;;;9.00;99.90;;;;;;5033363;28;20021;-82
2023/12/08 08:52:37;;;;;;;10.88;4.50;;;8.80;99.90;;;;;;5032395;28;20116;-82
2023/12/08 08:55:04;;;;;;;15.68;6.25;;;9.00;99.90;;;;;;5014697;28;20025;-81
2023/12/08 08:57:30;;;;;;;12.02;4.90;;;9.40;99.90;;;;;;5032174;28;20549;-81
2023/12/08 08:59:55;;;;;;;9.77;4.45;;;9.50;99.90;;;;;;5032514;28;20021;-81
2023/12/08 09:02:21;;;;;;;9.23;4.65;;;9.90;99.90;;;;;;5032314;28;20037;-81
2023/12/08 09:04:47;;;;;;;11.35;4.22;;;9.70;99.90;;;;;;5032386;28;20053;-81
2023/12/08 09:07:12;;;;;;;17.27;4.00;;;9.50;99.90;;;;;;5033101;28;20025;-81
2023/12/08 09:09:38;;;;;;;7.70;3.67;;;9.60;99.90;;;;;;5032173;28;20047;-81
2023/12/08 09:12:04;;;;;;;6.68;3.33;;;9.00;99.90;;;;;;5032022;28;20239;-81
2023/12/08 09:14:30;;;;;;;9.73;4.07;;;9.70;99.90;;;;;;5032076;28;20048;-82
2023/12/08 09:16:56;;;;;;;9.98;3.90;;;9.70;99.90;;;;;;5031957;28;20072;-81
2023/12/08 09:19:22;;;;;;;18.95;4.38;;;9.80;99.90;;;;;;5014249;28;20052;-81
2023/12/08 09:21:47;;;;;;;8.25;3.60;;;10.10;99.90;;;;;;5031872;28;20037;-81
2023/12/08 09:24:13;;;;;;;12.60;3.22;;;10.10;99.90;;;;;;5032754;28;20045;-81
2023/12/08 09:26:39;;;;;;;8.35;3.08;;;9.80;99.90;;;;;;5031789;28;20025;-81
2023/12/08 09:29:04;;;;;;;13.90;3.60;;;9.90;99.90;;;;;;5031848;28;20098;-81
2023/12/08 09:31:30;;;;;;;10.25;3.85;;;9.90;99.90;;;;;;5031688;28;20040;-81
2023/12/08 09:33:57;;;;;;;10.23;3.60;;;9.80;99.90;;;;;;5031758;28;20029;-81
2023/12/08 09:36:23;;;;;;;8.98;3.83;;;10.20;99.90;;;;;;5031779;28;20018;-81
2023/12/08 09:38:48;;;;;;;5.90;2.75;;;9.60;99.90;;;;;;5031681;28;20029;-81
2023/12/08 09:41:15;;;;;;;6.13;2.83;;;9.90;99.90;;;;;;5032416;28;20026;-81
2023/12/08 09:43:49;;;;;;;6.47;2.72;;;10.00;99.90;;;;;;5031837;28;20112;-81
2023/12/08 09:46:15;;;;;;;7.03;2.58;;;10.00;99.90;;;;;;5032256;28;20060;-81
2023/12/08 09:48:44;;;;;;;9.88;2.72;;;9.90;99.90;;;;;;5031310;28;20053;-81
2023/12/08 09:51:12;;;;;;;9.00;2.50;;;10.00;99.90;;;;;;5031225;28;20428;-81
2023/12/08 09:53:39;;;;;;;10.07;2.65;;;10.10;99.90;;;;;;5031340;28;20025;-81
2023/12/08 09:56:05;;;;;;;11.95;3.58;;;10.10;99.90;;;;;;5031296;28;20540;-81
2023/12/08 09:58:32;;;;;;;11.55;3.67;;;10.10;99.90;;;;;;5031371;28;20105;-81
2023/12/08 10:00:59;;;;;;;10.63;3.30;;;10.30;99.90;;;;;;5031255;28;20478;-81
2023/12/08 10:03:25;;;;;;;11.95;3.28;;;10.00;99.90;;;;;;5031153;28;20491;-82
2023/12/08 10:05:53;;;;;;;4.75;2.30;;;10.20;99.90;;;;;;5031123;28;20113;-81
2023/12/08 10:08:20;;;;;;;9.40;3.47;;;10.40;99.90;;;;;;5031142;28;20036;-81
2023/12/08 10:10:46;;;;;;;13.27;2.72;;;10.40;99.90;;;;;;5031822;28;20078;-82
2023/12/08 10:13:12;;;;;;;9.63;2.80;;;10.20;99.90;;;;;;5013150;28;20113;-82
2023/12/08 10:15:42;;;;;;;7.93;2.67;;;10.50;99.90;;;;;;5031026;28;20249;-82
2023/12/08 10:18:07;;;;;;;13.70;3.45;;;10.50;99.90;;;;;;5013266;28;20055;-81
2023/12/08 10:20:33;;;;;;;14.43;3.80;;;10.30;99.90;;;;;;5030849;28;20048;-81
2023/12/08 10:22:58;;;;;;;10.80;3.40;;;10.10;99.90;;;;;;5012840;28;20025;-81
2023/12/08 10:25:28;;;;;;;8.18;2.60;;;10.20;99.90;;;;;;5030550;28;20497;-81
2023/12/08 10:27:55;;;;;;;11.25;2.85;;;11.40;99.90;;;;;;5030710;28;20417;-81
2023/12/08 10:30:23;;;;;;;11.95;2.67;;;10.80;99.90;;;;;;5030694;28;20105;-81
2023/12/08 10:32:49;;;;;;;15.20;2.80;;;10.90;99.90;;;;;;5030897;28;20044;-82
2023/12/08 10:35:16;;;;;;;6.95;2.40;;;11.90;99.90;;;;;;5031387;28;20079;-82
2023/12/08 10:37:43;;;;;;;11.20;2.55;;;11.00;99.90;;;;;;5030512;28;20456;-82
2023/12/08 10:40:10;;;;;;;10.70;3.40;;;11.20;99.90;;;;;;5030478;28;20021;-82
2023/12/08 10:42:36;;;;;;;14.90;4.67;;;11.00;99.90;;;;;;5012746;28;20528;-82
2023/12/08 10:45:10;;;;;;;14.30;3.10;;;11.40;99.90;;;;;;5030506;28;20036;-82
2023/12/08 10:47:40;;;;;;;7.70;2.25;;;11.10;99.90;;;;;;5030383;28;20052;-82
2023/12/08 10:50:08;;;;;;;14.13;4.07;;;11.20;99.90;;;;;;5030306;28;20021;-82
2023/12/08 10:52:35;;;;;;;12.13;3.65;;;11.20;99.90;;;;;;5030108;28;20032;-82
2023/12/08 10:55:00;;;;;;;16.17;3.55;;;11.30;99.90;;;;;;5030170;28;20033;-82
2023/12/08 10:57:26;;;;;;;16.15;3.72;;;11.40;99.90;;;;;;5030198;28;20029;-81
2023/12/08 10:59:56;;;;;;;10.52;2.50;;;11.50;99.90;;;;;;5029553;28;20478;-81
2023/12/08 11:02:30;;;;;;;11.85;2.97;;;11.70;99.90;;;;;;5012576;28;20029;-81
2023/12/08 11:05:00;;;;;;;9.18;2.50;;;11.30;99.90;;;;;;5030044;28;20026;-82
2023/12/08 11:07:32;;;;;;;12.38;3.25;;;11.60;99.90;;;;;;5029929;28;20025;-81
2023/12/08 11:10:04;;;;;;;16.48;3.58;;;11.50;99.90;;;;;;5029958;28;20024;-81
2023/12/08 11:12:33;;;;;;;13.35;3.50;;;11.50;99.90;;;;;;5029887;28;20422;-81
2023/12/08 11:15:05;;;;;;;14.50;3.67;;;11.50;99.90;;;;;;5029715;28;20086;-81
2023/12/08 11:17:37;;;;;;;16.17;3.47;;;11.50;99.90;;;;;;5029770;28;20022;-81
2023/12/08 11:20:05;;;;;;;16.27;3.53;;;11.50;99.90;;;;;;5029728;28;20032;-83
2023/12/08 11:22:33;;;;;;;15.75;3.30;;;11.50;99.90;;;;;;5029759;28;20014;-81
2023/12/08 11:25:00;;;;;;;12.60;4.32;;;11.50;99.90;;;;;;5029527;28;20043;-82
2023/12/08 11:27:53;;;;;;;14.00;3.20;;;11.60;99.90;;;;;;5030214;28;20025;-81
2023/12/08 11:30:29;;;;;;;9.68;2.17;;;11.60;99.90;;;;;;5030479;28;20026;-82
2023/12/08 11:33:19;;;;;;;12.68;2.88;;;11.60;99.90;;;;;;5029557;28;20493;-81
2023/12/08 11:35:51;;;;;;;12.50;2.83;;;11.60;99.90;;;;;;5011853;28;20495;-81
2023/12/08 11:38:29;;;;;;;12.50;3.00;;;11.70;99.90;;;;;;5029431;28;20032;-81
2023/12/08 11:40:56;;;;;;;13.57;3.53;;;12.00;99.90;;;;;;5029470;28;20029;-82
2023/12/08 11:43:23;;;;;;;13.00;3.08;;;11.90;99.90;;;;;;5030268;28;20032;-81
2023/12/08 11:45:49;;;;;;;17.48;3.13;;;11.80;99.90;;;;;;5030090;28;20048;-82
2023/12/08 11:48:15;;;;;;;17.25;3.22;;;11.90;99.90;;;;;;5029193;28;20026;-81
2023/12/08 11:50:41;;;;;;;21.20;4.70;;;11.90;99.90;;;;;;5029263;28;20080;-85
2023/12/08 11:53:07;;;;;;;20.77;4.03;;;12.00;99.90;;;;;;5029225;28;20042;-81
2023/12/08 11:55:32;;;;;;;25.23;4.32;;;12.00;99.90;;;;;;5029223;28;20101;-82
2023/12/08 11:58:07;;;;;;;12.35;3.67;;;12.10;99.90;;;;;;5011509;28;20520;-82
2023/12/08 12:00:38;;;;;;;15.98;3.40;;;12.00;99.90;;;;;;5029771;28;20068;-82
2023/12/08 12:03:06;;;;;;;12.70;3.00;;;12.10;99.90;;;;;;5028949;28;20041;-82
2023/12/08 12:05:31;;;;;;;16.50;3.70;;;12.10;99.90;;;;;;5029269;28;20045;-82
2023/12/08 12:07:58;;;;;;;16.50;3.28;;;12.10;99.90;;;;;;5029063;28;20299;-82
2023/12/08 12:10:25;;;;;;;11.93;2.95;;;12.20;99.90;;;;;;5029935;28;20076;-82
2023/12/08 12:12:56;;;;;;;14.23;2.75;;;12.20;99.90;;;;;;5028948;28;20120;-81
2023/12/08 12:15:24;;;;;;;16.95;3.20;;;12.20;99.90;;;;;;5029775;28;20033;-83
2023/12/08 12:17:51;;;;;;;16.90;2.92;;;12.50;99.90;;;;;;5012024;28;20543;-82
2023/12/08 12:20:17;;;;;;;14.10;2.60;;;12.40;99.90;;;;;;5028947;28;20505;-85
2023/12/08 12:22:43;;;;;;;14.45;3.72;;;12.30;99.90;;;;;;5028832;28;20059;-82
2023/12/08 12:25:10;;;;;;;27.08;4.85;;;12.30;99.90;;;;;;5028706;28;20025;-82
2023/12/08 12:27:46;;;;;;;14.25;3.88;;;12.30;99.90;;;;;;5028860;28;20033;-82
2023/12/08 12:30:12;;;;;;;19.48;5.53;;;12.30;99.90;;;;;;5028838;28;20049;-82
2023/12/08 12:32:38;;;;;;;13.95;3.80;;;12.30;99.90;;;;;;5028788;28;20113;-82
2023/12/08 12:35:05;;;;;;;18.05;4.25;;;12.80;99.90;;;;;;5028848;28;20036;-82
2023/12/08 12:37:31;;;;;;;19.10;4.03;;;12.30;99.90;;;;;;5028730;28;20025;-82
2023/12/08 12:39:57;;;;;;;14.88;3.00;;;12.30;99.90;;;;;;5028762;28;20030;-82
2023/12/08 12:42:23;;;;;;;15.18;3.15;;;12.50;99.90;;;;;;5029488;28;20029;-82